EWG12C EDDL-LEBL
Flight info
| Callsign | EWG12C |
|---|---|
| Flight time | N/A |
| Altitude | 34000 |
| Route | MODRU2T MODRU Z283 LNO DCT RASCA DCT FAMEN DCT AHVEC/N0453F350 UN857 DISAK DCT DIRMO DCT VALKU DCT ATSUP DCT MINSO DCT DEGOL DCT PPG DCT ALBER |
| Aircraft | A21N/M-SDE2E3FGHIRWXY/LB1 |
Departure
| Time | 2026-05-01 15:25 |
|---|---|
| Airport | Düsseldorf Airport (EDDL) |
Arrival
| Time | N/A |
|---|---|
| Airport | Josep Tarradellas Barcelona-El Prat Airport (LEBL) |
| Time | Latitude | Longitude | Altitude | Speed | Heading |
|---|---|---|---|---|---|
| 2026-05-01 14:34 | 51.28068 | 6.76527 | 134 ft | 0 kts | 97° |
| 2026-05-01 15:14 | 51.28068 | 6.76474 | 134 ft | 4 kts | 65° |
| 2026-05-01 15:15 | 51.28067 | 6.76447 | 134 ft | 4 kts | 319° |
| 2026-05-01 15:15 | 51.28078 | 6.76434 | 134 ft | 0 kts | 327° |
| 2026-05-01 15:19 | 51.28084 | 6.76428 | 133 ft | 2 kts | 327° |
| 2026-05-01 15:20 | 51.28128 | 6.76361 | 133 ft | 7 kts | 300° |
| 2026-05-01 15:20 | 51.28160 | 6.76286 | 133 ft | 10 kts | 313° |
| 2026-05-01 15:20 | 51.28225 | 6.76245 | 134 ft | 13 kts | 24° |
| 2026-05-01 15:21 | 51.28289 | 6.76353 | 132 ft | 14 kts | 52° |
| 2026-05-01 15:21 | 51.28353 | 6.76485 | 129 ft | 16 kts | 52° |
| 2026-05-01 15:21 | 51.28424 | 6.76631 | 130 ft | 18 kts | 53° |
| 2026-05-01 15:21 | 51.28501 | 6.76795 | 132 ft | 19 kts | 53° |
| 2026-05-01 15:22 | 51.28675 | 6.77166 | 135 ft | 22 kts | 53° |
| 2026-05-01 15:22 | 51.28772 | 6.77371 | 135 ft | 24 kts | 53° |
| 2026-05-01 15:22 | 51.28877 | 6.77589 | 135 ft | 26 kts | 52° |
| 2026-05-01 15:23 | 51.28989 | 6.77822 | 135 ft | 27 kts | 52° |
| 2026-05-01 15:23 | 51.29105 | 6.78066 | 137 ft | 28 kts | 53° |
| 2026-05-01 15:23 | 51.29227 | 6.78321 | 146 ft | 30 kts | 53° |
| 2026-05-01 15:23 | 51.29330 | 6.78539 | 156 ft | 8 kts | 47° |
| 2026-05-01 15:24 | 51.29389 | 6.78575 | 158 ft | 11 kts | 355° |
| 2026-05-01 15:24 | 51.29471 | 6.78563 | 157 ft | 13 kts | 354° |
| 2026-05-01 15:24 | 51.29517 | 6.78473 | 156 ft | 14 kts | 243° |
| 2026-05-01 15:24 | 51.29455 | 6.78338 | 152 ft | 23 kts | 233° |
| 2026-05-01 15:25 | 51.29194 | 6.77788 | 138 ft | 100 kts | 232° |
| 2026-05-01 15:25 | 51.28637 | 6.76628 | 134 ft | 160 kts | 232° |
| 2026-05-01 15:25 | 51.27952 | 6.75123 | 577 ft | 168 kts | 235° |
| 2026-05-01 15:25 | 51.27291 | 6.73568 | 1214 ft | 171 kts | 232° |
| 2026-05-01 15:26 | 51.26573 | 6.72022 | 1891 ft | 174 kts | 229° |
| 2026-05-01 15:26 | 51.25793 | 6.70502 | 2511 ft | 182 kts | 228° |
| 2026-05-01 15:26 | 51.24961 | 6.68908 | 3114 ft | 192 kts | 229° |
| 2026-05-01 15:26 | 51.24124 | 6.67120 | 3625 ft | 210 kts | 234° |
| 2026-05-01 15:27 | 51.23596 | 6.64930 | 4168 ft | 225 kts | 266° |
| 2026-05-01 15:27 | 51.24054 | 6.62451 | 4574 ft | 249 kts | 302° |
| 2026-05-01 15:27 | 51.25301 | 6.60346 | 5084 ft | 269 kts | 323° |
| 2026-05-01 15:28 | 51.28365 | 6.56681 | 6546 ft | 281 kts | 317° |
| 2026-05-01 15:28 | 51.29487 | 6.54136 | 7299 ft | 284 kts | 290° |
| 2026-05-01 15:28 | 51.29783 | 6.51031 | 7946 ft | 288 kts | 264° |
| 2026-05-01 15:29 | 51.28094 | 6.45365 | 9517 ft | 288 kts | 223° |
| 2026-05-01 15:29 | 51.26555 | 6.43266 | 10267 ft | 292 kts | 218° |
| 2026-05-01 15:29 | 51.23302 | 6.38910 | 11219 ft | 323 kts | 219° |
| 2026-05-01 15:30 | 51.20307 | 6.34894 | 11803 ft | 352 kts | 219° |
| 2026-05-01 15:31 | 51.11657 | 6.22712 | 13407 ft | 401 kts | 220° |
| 2026-05-01 15:31 | 51.07413 | 6.16837 | 14481 ft | 407 kts | 220° |
| 2026-05-01 15:32 | 51.03109 | 6.10900 | 15454 ft | 413 kts | 220° |
| 2026-05-01 15:32 | 50.98394 | 6.05649 | 16365 ft | 417 kts | 211° |
| 2026-05-01 15:33 | 50.90836 | 5.98684 | 17591 ft | 424 kts | 207° |
| 2026-05-01 15:34 | 50.82968 | 5.92000 | 18793 ft | 431 kts | 207° |